sensor_id;sensor_type;location;lat;lon;timestamp;P1;durP1;ratioP1;P2;durP2;ratioP2
20042;SDS011;10182;52.896;6.496;2024-03-23T00:55:14;36.33;;;9.33;;
20042;SDS011;10182;52.896;6.496;2024-03-23T01:00:15;28.23;;;8.00;;
20042;SDS011;10182;52.896;6.496;2024-03-23T01:05:17;30.77;;;8.30;;
20042;SDS011;10182;52.896;6.496;2024-03-23T01:10:20;33.70;;;8.40;;
20042;SDS011;10182;52.896;6.496;2024-03-23T01:15:22;29.70;;;7.87;;
20042;SDS011;10182;52.896;6.496;2024-03-23T01:20:24;25.90;;;7.03;;
20042;SDS011;10182;52.896;6.496;2024-03-23T01:25:27;24.73;;;7.13;;
20042;SDS011;10182;52.896;6.496;2024-03-23T01:30:28;25.90;;;7.30;;
20042;SDS011;10182;52.896;6.496;2024-03-23T01:35:30;35.37;;;8.37;;
20042;SDS011;10182;52.896;6.496;2024-03-23T01:40:33;38.97;;;8.37;;
20042;SDS011;10182;52.896;6.496;2024-03-23T01:45:35;28.00;;;7.97;;
20042;SDS011;10182;52.896;6.496;2024-03-23T01:50:37;29.77;;;6.87;;
20042;SDS011;10182;52.896;6.496;2024-03-23T01:55:40;27.27;;;6.27;;
20042;SDS011;10182;52.896;6.496;2024-03-23T02:00:42;27.70;;;8.40;;
20042;SDS011;10182;52.896;6.496;2024-03-23T02:05:44;27.77;;;7.43;;
20042;SDS011;10182;52.896;6.496;2024-03-23T02:10:47;27.37;;;6.93;;
20042;SDS011;10182;52.896;6.496;2024-03-23T02:15:49;27.30;;;6.57;;
20042;SDS011;10182;52.896;6.496;2024-03-23T02:20:50;25.90;;;7.37;;
20042;SDS011;10182;52.896;6.496;2024-03-23T02:25:53;27.43;;;6.60;;
20042;SDS011;10182;52.896;6.496;2024-03-23T02:30:55;21.13;;;7.63;;
20042;SDS011;10182;52.896;6.496;2024-03-23T02:35:57;28.00;;;6.70;;
20042;SDS011;10182;52.896;6.496;2024-03-23T02:41:02;31.70;;;6.70;;
20042;SDS011;10182;52.896;6.496;2024-03-23T02:46:04;23.57;;;6.43;;
20042;SDS011;10182;52.896;6.496;2024-03-23T02:51:06;23.33;;;6.93;;
20042;SDS011;10182;52.896;6.496;2024-03-23T02:56:09;18.70;;;6.07;;
20042;SDS011;10182;52.896;6.496;2024-03-23T03:01:15;26.07;;;6.43;;
20042;SDS011;10182;52.896;6.496;2024-03-23T03:06:22;20.93;;;6.60;;
20042;SDS011;10182;52.896;6.496;2024-03-23T03:11:26;27.53;;;7.30;;
20042;SDS011;10182;52.896;6.496;2024-03-23T03:16:27;20.47;;;5.67;;
20042;SDS011;10182;52.896;6.496;2024-03-23T03:21:29;19.80;;;6.83;;
20042;SDS011;10182;52.896;6.496;2024-03-23T03:26:32;28.17;;;7.27;;
20042;SDS011;10182;52.896;6.496;2024-03-23T03:31:33;24.73;;;6.20;;
20042;SDS011;10182;52.896;6.496;2024-03-23T03:36:35;21.37;;;5.57;;
20042;SDS011;10182;52.896;6.496;2024-03-23T03:41:38;28.03;;;6.97;;
20042;SDS011;10182;52.896;6.496;2024-03-23T03:46:40;22.53;;;6.30;;
20042;SDS011;10182;52.896;6.496;2024-03-23T03:51:42;16.97;;;6.30;;
20042;SDS011;10182;52.896;6.496;2024-03-23T03:56:45;29.43;;;7.80;;
20042;SDS011;10182;52.896;6.496;2024-03-23T04:01:46;28.97;;;6.87;;
20042;SDS011;10182;52.896;6.496;2024-03-23T04:06:48;23.30;;;6.43;;
20042;SDS011;10182;52.896;6.496;2024-03-23T04:11:51;24.07;;;5.63;;
20042;SDS011;10182;52.896;6.496;2024-03-23T04:16:52;16.43;;;6.00;;
20042;SDS011;10182;52.896;6.496;2024-03-23T04:21:55;24.90;;;6.70;;
20042;SDS011;10182;52.896;6.496;2024-03-23T04:26:58;18.60;;;5.80;;
20042;SDS011;10182;52.896;6.496;2024-03-23T04:32:00;23.10;;;6.23;;
20042;SDS011;10182;52.896;6.496;2024-03-23T04:37:01;25.80;;;7.27;;
20042;SDS011;10182;52.896;6.496;2024-03-23T04:42:06;18.60;;;6.47;;
20042;SDS011;10182;52.896;6.496;2024-03-23T04:47:08;13.67;;;5.17;;
20042;SDS011;10182;52.896;6.496;2024-03-23T04:52:10;24.83;;;6.03;;
20042;SDS011;10182;52.896;6.496;2024-03-23T04:57:13;24.30;;;6.80;;
20042;SDS011;10182;52.896;6.496;2024-03-23T05:02:16;19.67;;;5.33;;
20042;SDS011;10182;52.896;6.496;2024-03-23T05:07:18;18.67;;;5.87;;
20042;SDS011;10182;52.896;6.496;2024-03-23T05:12:21;25.60;;;5.97;;
20042;SDS011;10182;52.896;6.496;2024-03-23T05:17:23;20.23;;;5.10;;
20042;SDS011;10182;52.896;6.496;2024-03-23T05:22:24;19.30;;;5.07;;
20042;SDS011;10182;52.896;6.496;2024-03-23T05:27:28;16.67;;;5.33;;
20042;SDS011;10182;52.896;6.496;2024-03-23T05:32:30;13.63;;;4.50;;
20042;SDS011;10182;52.896;6.496;2024-03-23T05:37:31;16.53;;;5.53;;
20042;SDS011;10182;52.896;6.496;2024-03-23T05:42:35;22.10;;;4.93;;
20042;SDS011;10182;52.896;6.496;2024-03-23T05:47:37;22.57;;;5.07;;
20042;SDS011;10182;52.896;6.496;2024-03-23T05:52:38;24.80;;;5.47;;
20042;SDS011;10182;52.896;6.496;2024-03-23T05:57:42;17.43;;;4.13;;
20042;SDS011;10182;52.896;6.496;2024-03-23T06:02:43;18.70;;;5.30;;
20042;SDS011;10182;52.896;6.496;2024-03-23T06:07:45;16.97;;;5.13;;
20042;SDS011;10182;52.896;6.496;2024-03-23T06:12:48;16.40;;;3.77;;
20042;SDS011;10182;52.896;6.496;2024-03-23T06:17:52;16.13;;;4.03;;
20042;SDS011;10182;52.896;6.496;2024-03-23T06:22:53;8.77;;;3.20;;
20042;SDS011;10182;52.896;6.496;2024-03-23T06:27:57;9.63;;;2.80;;
20042;SDS011;10182;52.896;6.496;2024-03-23T06:32:59;6.90;;;1.87;;
20042;SDS011;10182;52.896;6.496;2024-03-23T06:38:01;6.83;;;1.70;;
20042;SDS011;10182;52.896;6.496;2024-03-23T06:43:04;9.23;;;2.23;;
20042;SDS011;10182;52.896;6.496;2024-03-23T06:48:06;9.23;;;2.03;;
20042;SDS011;10182;52.896;6.496;2024-03-23T06:53:08;13.80;;;2.87;;
20042;SDS011;10182;52.896;6.496;2024-03-23T06:58:11;12.27;;;3.50;;
20042;SDS011;10182;52.896;6.496;2024-03-23T07:03:14;10.00;;;3.30;;
20042;SDS011;10182;52.896;6.496;2024-03-23T07:08:16;10.63;;;3.67;;
20042;SDS011;10182;52.896;6.496;2024-03-23T07:13:22;17.13;;;3.63;;
20042;SDS011;10182;52.896;6.496;2024-03-23T07:18:24;13.70;;;4.20;;
20042;SDS011;10182;52.896;6.496;2024-03-23T07:23:26;12.70;;;4.03;;
20042;SDS011;10182;52.896;6.496;2024-03-23T07:28:29;9.73;;;3.43;;
20042;SDS011;10182;52.896;6.496;2024-03-23T07:33:32;11.37;;;2.90;;
20042;SDS011;10182;52.896;6.496;2024-03-23T07:38:34;7.27;;;2.20;;
20042;SDS011;10182;52.896;6.496;2024-03-23T07:43:37;7.63;;;2.37;;
20042;SDS011;10182;52.896;6.496;2024-03-23T07:48:40;3.90;;;2.13;;
20042;SDS011;10182;52.896;6.496;2024-03-23T07:53:42;9.33;;;3.17;;
20042;SDS011;10182;52.896;6.496;2024-03-23T07:58:46;12.13;;;4.27;;
20042;SDS011;10182;52.896;6.496;2024-03-23T08:03:49;5.30;;;2.87;;
20042;SDS011;10182;52.896;6.496;2024-03-23T08:08:51;5.83;;;2.50;;
20042;SDS011;10182;52.896;6.496;2024-03-23T08:14:01;14.07;;;2.63;;
20042;SDS011;10182;52.896;6.496;2024-03-23T08:19:02;13.87;;;3.10;;
20042;SDS011;10182;52.896;6.496;2024-03-23T08:24:05;10.53;;;2.70;;
20042;SDS011;10182;52.896;6.496;2024-03-23T08:29:08;5.67;;;2.73;;
20042;SDS011;10182;52.896;6.496;2024-03-23T08:34:10;12.37;;;2.80;;
20042;SDS011;10182;52.896;6.496;2024-03-23T08:39:11;4.27;;;2.33;;
20042;SDS011;10182;52.896;6.496;2024-03-23T08:44:14;6.70;;;2.97;;
20042;SDS011;10182;52.896;6.496;2024-03-23T08:49:16;7.27;;;3.27;;
20042;SDS011;10182;52.896;6.496;2024-03-23T08:54:18;12.37;;;3.83;;
20042;SDS011;10182;52.896;6.496;2024-03-23T08:59:23;15.03;;;3.80;;
20042;SDS011;10182;52.896;6.496;2024-03-23T09:04:25;12.90;;;3.70;;
20042;SDS011;10182;52.896;6.496;2024-03-23T09:09:27;9.63;;;3.90;;
20042;SDS011;10182;52.896;6.496;2024-03-23T09:14:30;11.30;;;3.47;;
20042;SDS011;10182;52.896;6.496;2024-03-23T09:19:31;10.97;;;3.20;;
20042;SDS011;10182;52.896;6.496;2024-03-23T09:24:33;11.60;;;4.27;;
20042;SDS011;10182;52.896;6.496;2024-03-23T09:29:36;13.57;;;3.50;;
20042;SDS011;10182;52.896;6.496;2024-03-23T09:34:37;12.23;;;3.63;;
20042;SDS011;10182;52.896;6.496;2024-03-23T09:39:39;14.07;;;3.63;;
20042;SDS011;10182;52.896;6.496;2024-03-23T09:44:43;13.17;;;3.70;;
20042;SDS011;10182;52.896;6.496;2024-03-23T09:49:45;11.20;;;2.90;;
20042;SDS011;10182;52.896;6.496;2024-03-23T09:54:47;8.60;;;2.87;;
20042;SDS011;10182;52.896;6.496;2024-03-23T09:59:50;12.33;;;3.07;;
20042;SDS011;10182;52.896;6.496;2024-03-23T10:04:51;7.57;;;3.67;;
20042;SDS011;10182;52.896;6.496;2024-03-23T10:09:53;12.37;;;2.80;;
20042;SDS011;10182;52.896;6.496;2024-03-23T10:14:56;12.03;;;3.27;;
20042;SDS011;10182;52.896;6.496;2024-03-23T10:19:58;7.03;;;2.00;;
20042;SDS011;10182;52.896;6.496;2024-03-23T10:25:06;6.67;;;1.90;;
20042;SDS011;10182;52.896;6.496;2024-03-23T10:30:11;9.10;;;2.27;;
20042;SDS011;10182;52.896;6.496;2024-03-23T10:35:15;9.37;;;2.00;;
20042;SDS011;10182;52.896;6.496;2024-03-23T10:40:19;3.47;;;1.70;;
20042;SDS011;10182;52.896;6.496;2024-03-23T10:45:22;7.60;;;2.70;;
20042;SDS011;10182;52.896;6.496;2024-03-23T10:50:23;6.93;;;2.07;;
20042;SDS011;10182;52.896;6.496;2024-03-23T10:55:25;3.33;;;1.20;;
20042;SDS011;10182;52.896;6.496;2024-03-23T11:00:30;5.80;;;1.27;;
20042;SDS011;10182;52.896;6.496;2024-03-23T11:05:32;3.93;;;1.33;;
20042;SDS011;10182;52.896;6.496;2024-03-23T11:10:34;2.37;;;1.40;;
20042;SDS011;10182;52.896;6.496;2024-03-23T11:15:37;5.50;;;1.70;;
20042;SDS011;10182;52.896;6.496;2024-03-23T11:20:39;8.50;;;2.37;;
20042;SDS011;10182;52.896;6.496;2024-03-23T11:25:41;7.07;;;2.03;;
20042;SDS011;10182;52.896;6.496;2024-03-23T11:30:44;6.97;;;1.97;;
20042;SDS011;10182;52.896;6.496;2024-03-23T11:35:46;6.60;;;1.83;;
20042;SDS011;10182;52.896;6.496;2024-03-23T11:40:48;5.10;;;2.33;;
20042;SDS011;10182;52.896;6.496;2024-03-23T11:45:52;8.47;;;2.37;;
20042;SDS011;10182;52.896;6.496;2024-03-23T11:50:56;7.47;;;2.17;;
20042;SDS011;10182;52.896;6.496;2024-03-23T11:55:59;11.33;;;3.03;;
20042;SDS011;10182;52.896;6.496;2024-03-23T12:01:05;8.33;;;3.03;;
20042;SDS011;10182;52.896;6.496;2024-03-23T12:06:11;1.57;;;0.63;;
20042;SDS011;10182;52.896;6.496;2024-03-23T12:11:14;0.50;;;0.50;;
20042;SDS011;10182;52.896;6.496;2024-03-23T12:16:18;5.03;;;1.17;;
20042;SDS011;10182;52.896;6.496;2024-03-23T12:21:21;7.37;;;1.87;;
20042;SDS011;10182;52.896;6.496;2024-03-23T12:26:23;4.63;;;1.80;;
20042;SDS011;10182;52.896;6.496;2024-03-23T12:31:26;10.10;;;2.83;;
20042;SDS011;10182;52.896;6.496;2024-03-23T12:36:28;9.90;;;2.40;;
20042;SDS011;10182;52.896;6.496;2024-03-23T12:41:30;7.23;;;2.27;;
20042;SDS011;10182;52.896;6.496;2024-03-23T12:46:32;6.93;;;2.27;;
20042;SDS011;10182;52.896;6.496;2024-03-23T12:51:34;8.87;;;2.70;;
20042;SDS011;10182;52.896;6.496;2024-03-23T12:56:36;11.00;;;3.10;;
20042;SDS011;10182;52.896;6.496;2024-03-23T13:01:39;7.77;;;3.00;;
20042;SDS011;10182;52.896;6.496;2024-03-23T13:06:40;8.10;;;2.53;;
20042;SDS011;10182;52.896;6.496;2024-03-23T13:11:42;10.30;;;3.00;;
20042;SDS011;10182;52.896;6.496;2024-03-23T13:16:45;9.97;;;3.10;;
20042;SDS011;10182;52.896;6.496;2024-03-23T13:21:47;9.37;;;2.87;;
20042;SDS011;10182;52.896;6.496;2024-03-23T13:26:49;11.80;;;2.67;;
20042;SDS011;10182;52.896;6.496;2024-03-23T13:31:52;8.33;;;2.60;;
20042;SDS011;10182;52.896;6.496;2024-03-23T13:36:54;5.80;;;1.97;;
20042;SDS011;10182;52.896;6.496;2024-03-23T13:41:56;8.17;;;2.23;;
20042;SDS011;10182;52.896;6.496;2024-03-23T13:46:59;14.37;;;3.50;;
20042;SDS011;10182;52.896;6.496;2024-03-23T13:52:01;9.97;;;2.90;;
20042;SDS011;10182;52.896;6.496;2024-03-23T13:57:02;10.20;;;2.80;;
20042;SDS011;10182;52.896;6.496;2024-03-23T14:02:05;15.87;;;3.27;;
20042;SDS011;10182;52.896;6.496;2024-03-23T14:07:07;10.77;;;3.03;;
20042;SDS011;10182;52.896;6.496;2024-03-23T14:12:10;10.80;;;2.73;;
20042;SDS011;10182;52.896;6.496;2024-03-23T14:17:14;14.20;;;3.53;;
20042;SDS011;10182;52.896;6.496;2024-03-23T14:22:15;8.37;;;3.00;;
20042;SDS011;10182;52.896;6.496;2024-03-23T14:27:19;14.67;;;2.97;;
20042;SDS011;10182;52.896;6.496;2024-03-23T14:32:23;12.33;;;4.03;;
20042;SDS011;10182;52.896;6.496;2024-03-23T14:37:26;8.57;;;2.43;;
20042;SDS011;10182;52.896;6.496;2024-03-23T14:42:28;7.23;;;2.50;;
20042;SDS011;10182;52.896;6.496;2024-03-23T14:47:32;7.33;;;2.60;;
20042;SDS011;10182;52.896;6.496;2024-03-23T14:52:34;7.00;;;1.73;;
20042;SDS011;10182;52.896;6.496;2024-03-23T14:57:35;11.07;;;2.53;;
20042;SDS011;10182;52.896;6.496;2024-03-23T15:02:40;8.90;;;2.47;;
20042;SDS011;10182;52.896;6.496;2024-03-23T15:07:42;5.77;;;1.80;;
20042;SDS011;10182;52.896;6.496;2024-03-23T15:12:43;6.87;;;2.20;;
20042;SDS011;10182;52.896;6.496;2024-03-23T15:17:46;5.80;;;2.30;;
20042;SDS011;10182;52.896;6.496;2024-03-23T15:22:48;7.67;;;2.47;;
20042;SDS011;10182;52.896;6.496;2024-03-23T15:27:50;6.43;;;2.80;;
20042;SDS011;10182;52.896;6.496;2024-03-23T15:32:53;13.47;;;2.20;;
20042;SDS011;10182;52.896;6.496;2024-03-23T15:37:54;6.93;;;1.77;;
20042;SDS011;10182;52.896;6.496;2024-03-23T15:42:56;7.90;;;1.93;;
20042;SDS011;10182;52.896;6.496;2024-03-23T15:47:59;8.17;;;2.47;;
20042;SDS011;10182;52.896;6.496;2024-03-23T15:53:01;5.73;;;1.47;;
20042;SDS011;10182;52.896;6.496;2024-03-23T15:58:03;4.37;;;1.50;;
20042;SDS011;10182;52.896;6.496;2024-03-23T16:03:06;6.13;;;1.97;;
20042;SDS011;10182;52.896;6.496;2024-03-23T16:08:07;6.97;;;1.63;;
20042;SDS011;10182;52.896;6.496;2024-03-23T16:13:09;9.50;;;2.47;;
20042;SDS011;10182;52.896;6.496;2024-03-23T16:18:12;7.60;;;1.87;;
20042;SDS011;10182;52.896;6.496;2024-03-23T16:23:14;4.77;;;2.07;;
20042;SDS011;10182;52.896;6.496;2024-03-23T16:28:16;11.10;;;2.63;;
20042;SDS011;10182;52.896;6.496;2024-03-23T16:33:19;6.87;;;2.90;;
20042;SDS011;10182;52.896;6.496;2024-03-23T16:38:21;4.07;;;1.70;;
20042;SDS011;10182;52.896;6.496;2024-03-23T16:43:23;10.43;;;3.13;;
20042;SDS011;10182;52.896;6.496;2024-03-23T16:48:27;9.83;;;3.77;;
20042;SDS011;10182;52.896;6.496;2024-03-23T16:53:29;7.93;;;2.10;;
20042;SDS011;10182;52.896;6.496;2024-03-23T16:58:32;7.07;;;2.07;;
20042;SDS011;10182;52.896;6.496;2024-03-23T17:03:35;8.17;;;2.20;;
20042;SDS011;10182;52.896;6.496;2024-03-23T17:08:37;7.67;;;2.47;;
20042;SDS011;10182;52.896;6.496;2024-03-23T17:13:39;9.57;;;3.10;;
20042;SDS011;10182;52.896;6.496;2024-03-23T17:18:42;7.23;;;2.87;;
20042;SDS011;10182;52.896;6.496;2024-03-23T17:23:44;9.03;;;3.17;;
20042;SDS011;10182;52.896;6.496;2024-03-23T17:28:46;11.60;;;3.83;;
20042;SDS011;10182;52.896;6.496;2024-03-23T17:33:50;7.43;;;2.17;;
20042;SDS011;10182;52.896;6.496;2024-03-23T17:38:53;5.20;;;2.17;;
20042;SDS011;10182;52.896;6.496;2024-03-23T17:43:55;5.90;;;2.47;;
20042;SDS011;10182;52.896;6.496;2024-03-23T17:48:58;4.07;;;1.80;;
20042;SDS011;10182;52.896;6.496;2024-03-23T17:53:59;8.20;;;2.83;;
20042;SDS011;10182;52.896;6.496;2024-03-23T17:59:01;5.07;;;2.33;;
20042;SDS011;10182;52.896;6.496;2024-03-23T18:04:12;5.90;;;2.90;;
20042;SDS011;10182;52.896;6.496;2024-03-23T18:09:15;8.90;;;3.40;;
20042;SDS011;10182;52.896;6.496;2024-03-23T18:14:17;6.03;;;2.60;;
20042;SDS011;10182;52.896;6.496;2024-03-23T18:19:20;4.80;;;2.33;;
20042;SDS011;10182;52.896;6.496;2024-03-23T18:24:21;4.90;;;1.40;;
20042;SDS011;10182;52.896;6.496;2024-03-23T18:29:23;3.17;;;1.40;;
20042;SDS011;10182;52.896;6.496;2024-03-23T18:34:26;5.40;;;1.90;;
20042;SDS011;10182;52.896;6.496;2024-03-23T18:39:28;5.07;;;1.73;;
20042;SDS011;10182;52.896;6.496;2024-03-23T18:44:29;3.80;;;1.93;;
20042;SDS011;10182;52.896;6.496;2024-03-23T18:49:32;3.77;;;2.03;;
20042;SDS011;10182;52.896;6.496;2024-03-23T18:54:34;5.73;;;2.00;;
20042;SDS011;10182;52.896;6.496;2024-03-23T18:59:36;7.47;;;2.73;;
20042;SDS011;10182;52.896;6.496;2024-03-23T19:04:39;5.53;;;2.37;;
20042;SDS011;10182;52.896;6.496;2024-03-23T19:09:41;4.10;;;2.40;;
20042;SDS011;10182;52.896;6.496;2024-03-23T19:14:42;7.50;;;4.40;;
20042;SDS011;10182;52.896;6.496;2024-03-23T19:19:45;8.53;;;3.20;;
20042;SDS011;10182;52.896;6.496;2024-03-23T19:24:47;8.63;;;2.63;;
20042;SDS011;10182;52.896;6.496;2024-03-23T19:29:49;5.20;;;2.07;;
20042;SDS011;10182;52.896;6.496;2024-03-23T19:34:52;4.67;;;2.20;;
20042;SDS011;10182;52.896;6.496;2024-03-23T19:39:53;5.10;;;1.80;;
20042;SDS011;10182;52.896;6.496;2024-03-23T19:44:56;3.00;;;1.93;;
20042;SDS011;10182;52.896;6.496;2024-03-23T19:49:59;3.67;;;1.97;;
20042;SDS011;10182;52.896;6.496;2024-03-23T19:55:01;2.60;;;2.33;;
20042;SDS011;10182;52.896;6.496;2024-03-23T20:00:03;7.93;;;2.40;;
20042;SDS011;10182;52.896;6.496;2024-03-23T20:05:08;5.70;;;2.30;;
20042;SDS011;10182;52.896;6.496;2024-03-23T20:10:10;2.87;;;1.93;;
20042;SDS011;10182;52.896;6.496;2024-03-23T20:15:12;4.30;;;2.27;;
20042;SDS011;10182;52.896;6.496;2024-03-23T20:20:15;2.67;;;1.90;;
20042;SDS011;10182;52.896;6.496;2024-03-23T20:25:17;5.93;;;2.20;;
20042;SDS011;10182;52.896;6.496;2024-03-23T20:30:19;3.93;;;1.60;;
20042;SDS011;10182;52.896;6.496;2024-03-23T20:35:22;2.57;;;2.13;;
20042;SDS011;10182;52.896;6.496;2024-03-23T20:40:24;4.50;;;1.77;;
20042;SDS011;10182;52.896;6.496;2024-03-23T20:45:26;5.07;;;1.77;;
20042;SDS011;10182;52.896;6.496;2024-03-23T20:50:29;3.33;;;2.27;;
20042;SDS011;10182;52.896;6.496;2024-03-23T20:55:30;4.03;;;2.30;;
20042;SDS011;10182;52.896;6.496;2024-03-23T21:00:32;3.33;;;2.10;;
20042;SDS011;10182;52.896;6.496;2024-03-23T21:05:35;4.43;;;1.77;;
20042;SDS011;10182;52.896;6.496;2024-03-23T21:10:37;4.47;;;2.67;;
20042;SDS011;10182;52.896;6.496;2024-03-23T21:15:41;2.57;;;2.37;;
20042;SDS011;10182;52.896;6.496;2024-03-23T21:20:52;3.87;;;2.80;;
20042;SDS011;10182;52.896;6.496;2024-03-23T21:25:55;6.73;;;2.63;;
20042;SDS011;10182;52.896;6.496;2024-03-23T21:30:57;3.90;;;2.20;;
20042;SDS011;10182;52.896;6.496;2024-03-23T21:36:00;5.13;;;2.33;;
20042;SDS011;10182;52.896;6.496;2024-03-23T21:41:02;7.30;;;2.23;;
20042;SDS011;10182;52.896;6.496;2024-03-23T21:46:04;5.80;;;2.87;;
20042;SDS011;10182;52.896;6.496;2024-03-23T21:51:07;5.00;;;3.40;;
20042;SDS011;10182;52.896;6.496;2024-03-23T21:56:08;10.43;;;5.13;;
20042;SDS011;10182;52.896;6.496;2024-03-23T22:01:10;13.43;;;6.00;;
20042;SDS011;10182;52.896;6.496;2024-03-23T22:06:14;7.03;;;2.77;;
20042;SDS011;10182;52.896;6.496;2024-03-23T22:11:16;9.67;;;3.27;;
20042;SDS011;10182;52.896;6.496;2024-03-23T22:16:18;6.80;;;3.23;;
20042;SDS011;10182;52.896;6.496;2024-03-23T22:21:21;34.93;;;12.93;;
20042;SDS011;10182;52.896;6.496;2024-03-23T22:26:23;13.60;;;4.50;;
20042;SDS011;10182;52.896;6.496;2024-03-23T22:31:24;11.03;;;6.33;;
20042;SDS011;10182;52.896;6.496;2024-03-23T22:36:27;18.33;;;8.80;;
20042;SDS011;10182;52.896;6.496;2024-03-23T22:41:29;5.87;;;3.63;;
20042;SDS011;10182;52.896;6.496;2024-03-23T22:46:31;8.57;;;3.77;;
20042;SDS011;10182;52.896;6.496;2024-03-23T22:51:34;5.33;;;3.30;;
20042;SDS011;10182;52.896;6.496;2024-03-23T22:56:35;5.03;;;3.23;;
20042;SDS011;10182;52.896;6.496;2024-03-23T23:01:37;10.20;;;3.60;;
20042;SDS011;10182;52.896;6.496;2024-03-23T23:06:40;6.50;;;3.40;;
20042;SDS011;10182;52.896;6.496;2024-03-23T23:11:42;8.23;;;3.43;;
20042;SDS011;10182;52.896;6.496;2024-03-23T23:16:43;5.50;;;3.53;;
20042;SDS011;10182;52.896;6.496;2024-03-23T23:21:47;7.03;;;4.13;;
20042;SDS011;10182;52.896;6.496;2024-03-23T23:26:49;8.93;;;3.90;;
20042;SDS011;10182;52.896;6.496;2024-03-23T23:31:50;11.63;;;4.17;;
20042;SDS011;10182;52.896;6.496;2024-03-23T23:36:53;8.03;;;4.07;;
20042;SDS011;10182;52.896;6.496;2024-03-23T23:41:55;8.30;;;4.60;;
20042;SDS011;10182;52.896;6.496;2024-03-23T23:46:57;5.57;;;4.37;;
20042;SDS011;10182;52.896;6.496;2024-03-23T23:51:59;8.47;;;4.17;;
20042;SDS011;10182;52.896;6.496;2024-03-23T23:57:01;8.13;;;4.03;;
